sensor_id;sensor_type;location;lat;lon;timestamp;P1;durP1;ratioP1;P2;durP2;ratioP2
19213;SDS011;9741;51.020;5.304;2023-06-22T00:01:17;0.35;;;0.35;;
19213;SDS011;9741;51.020;5.304;2023-06-22T00:03:44;0.65;;;0.43;;
19213;SDS011;9741;51.020;5.304;2023-06-22T00:06:11;0.40;;;0.40;;
19213;SDS011;9741;51.020;5.304;2023-06-22T00:08:38;1.50;;;0.85;;
19213;SDS011;9741;51.020;5.304;2023-06-22T00:11:07;2.28;;;0.85;;
19213;SDS011;9741;51.020;5.304;2023-06-22T00:13:34;0.88;;;0.75;;
19213;SDS011;9741;51.020;5.304;2023-06-22T00:16:02;3.63;;;0.90;;
19213;SDS011;9741;51.020;5.304;2023-06-22T00:18:29;0.68;;;0.68;;
19213;SDS011;9741;51.020;5.304;2023-06-22T00:20:57;0.65;;;0.55;;
19213;SDS011;9741;51.020;5.304;2023-06-22T00:23:25;0.88;;;0.73;;
19213;SDS011;9741;51.020;5.304;2023-06-22T00:25:52;0.93;;;0.60;;
19213;SDS011;9741;51.020;5.304;2023-06-22T00:28:21;0.50;;;0.50;;
19213;SDS011;9741;51.020;5.304;2023-06-22T00:30:48;1.30;;;0.90;;
19213;SDS011;9741;51.020;5.304;2023-06-22T00:33:15;0.22;;;0.22;;
19213;SDS011;9741;51.020;5.304;2023-06-22T00:35:42;0.73;;;0.55;;
19213;SDS011;9741;51.020;5.304;2023-06-22T00:38:10;0.90;;;0.60;;
19213;SDS011;9741;51.020;5.304;2023-06-22T00:40:37;0.43;;;0.43;;
19213;SDS011;9741;51.020;5.304;2023-06-22T00:43:05;2.22;;;0.77;;
19213;SDS011;9741;51.020;5.304;2023-06-22T00:45:33;0.82;;;0.73;;
19213;SDS011;9741;51.020;5.304;2023-06-22T00:48:01;1.15;;;0.90;;
19213;SDS011;9741;51.020;5.304;2023-06-22T00:50:29;0.68;;;0.68;;
19213;SDS011;9741;51.020;5.304;2023-06-22T00:52:59;0.50;;;0.50;;
19213;SDS011;9741;51.020;5.304;2023-06-22T00:55:33;0.60;;;0.60;;
19213;SDS011;9741;51.020;5.304;2023-06-22T00:58:02;2.42;;;1.25;;
19213;SDS011;9741;51.020;5.304;2023-06-22T01:00:34;0.52;;;0.50;;
19213;SDS011;9741;51.020;5.304;2023-06-22T01:03:01;0.52;;;0.52;;
19213;SDS011;9741;51.020;5.304;2023-06-22T01:05:31;0.45;;;0.45;;
19213;SDS011;9741;51.020;5.304;2023-06-22T01:08:02;0.75;;;0.75;;
19213;SDS011;9741;51.020;5.304;2023-06-22T01:10:36;1.17;;;0.80;;
19213;SDS011;9741;51.020;5.304;2023-06-22T01:13:10;0.70;;;0.70;;
19213;SDS011;9741;51.020;5.304;2023-06-22T01:15:45;1.15;;;0.85;;
19213;SDS011;9741;51.020;5.304;2023-06-22T01:18:16;1.15;;;1.05;;
19213;SDS011;9741;51.020;5.304;2023-06-22T01:20:45;1.58;;;0.75;;
19213;SDS011;9741;51.020;5.304;2023-06-22T01:23:16;0.73;;;0.73;;
19213;SDS011;9741;51.020;5.304;2023-06-22T01:25:57;0.47;;;0.47;;
19213;SDS011;9741;51.020;5.304;2023-06-22T01:28:45;1.02;;;0.90;;
19213;SDS011;9741;51.020;5.304;2023-06-22T01:31:14;1.13;;;1.02;;
19213;SDS011;9741;51.020;5.304;2023-06-22T01:33:44;0.77;;;0.60;;
19213;SDS011;9741;51.020;5.304;2023-06-22T01:36:13;0.98;;;0.80;;
19213;SDS011;9741;51.020;5.304;2023-06-22T01:38:47;0.93;;;0.60;;
19213;SDS011;9741;51.020;5.304;2023-06-22T01:41:14;0.95;;;0.80;;
19213;SDS011;9741;51.020;5.304;2023-06-22T01:43:43;1.35;;;1.15;;
19213;SDS011;9741;51.020;5.304;2023-06-22T01:46:12;1.38;;;0.90;;
19213;SDS011;9741;51.020;5.304;2023-06-22T01:48:40;1.00;;;0.90;;
19213;SDS011;9741;51.020;5.304;2023-06-22T01:51:07;2.50;;;1.30;;
19213;SDS011;9741;51.020;5.304;2023-06-22T01:53:37;1.52;;;0.75;;
19213;SDS011;9741;51.020;5.304;2023-06-22T01:56:05;0.88;;;0.85;;
19213;SDS011;9741;51.020;5.304;2023-06-22T01:58:35;2.33;;;1.50;;
19213;SDS011;9741;51.020;5.304;2023-06-22T02:01:10;1.10;;;1.00;;
19213;SDS011;9741;51.020;5.304;2023-06-22T02:03:41;3.50;;;0.93;;
19213;SDS011;9741;51.020;5.304;2023-06-22T02:06:11;0.73;;;0.70;;
19213;SDS011;9741;51.020;5.304;2023-06-22T02:08:45;0.60;;;0.60;;
19213;SDS011;9741;51.020;5.304;2023-06-22T02:11:16;1.77;;;1.27;;
19213;SDS011;9741;51.020;5.304;2023-06-22T02:13:46;1.08;;;1.02;;
19213;SDS011;9741;51.020;5.304;2023-06-22T02:16:16;0.85;;;0.82;;
19213;SDS011;9741;51.020;5.304;2023-06-22T02:18:46;1.55;;;1.45;;
19213;SDS011;9741;51.020;5.304;2023-06-22T02:21:16;2.75;;;1.65;;
19213;SDS011;9741;51.020;5.304;2023-06-22T02:23:43;1.27;;;0.95;;
19213;SDS011;9741;51.020;5.304;2023-06-22T02:26:11;2.78;;;1.92;;
19213;SDS011;9741;51.020;5.304;2023-06-22T02:28:39;2.05;;;1.52;;
19213;SDS011;9741;51.020;5.304;2023-06-22T02:31:09;2.15;;;1.13;;
19213;SDS011;9741;51.020;5.304;2023-06-22T02:33:38;1.33;;;1.13;;
19213;SDS011;9741;51.020;5.304;2023-06-22T02:36:06;5.05;;;2.40;;
19213;SDS011;9741;51.020;5.304;2023-06-22T02:38:34;1.17;;;1.08;;
19213;SDS011;9741;51.020;5.304;2023-06-22T02:41:01;2.75;;;2.00;;
19213;SDS011;9741;51.020;5.304;2023-06-22T02:43:31;2.38;;;1.98;;
19213;SDS011;9741;51.020;5.304;2023-06-22T02:45:58;2.38;;;1.70;;
19213;SDS011;9741;51.020;5.304;2023-06-22T02:48:25;3.33;;;1.85;;
19213;SDS011;9741;51.020;5.304;2023-06-22T02:50:54;0.85;;;0.80;;
19213;SDS011;9741;51.020;5.304;2023-06-22T02:53:24;4.60;;;2.05;;
19213;SDS011;9741;51.020;5.304;2023-06-22T02:55:51;2.17;;;1.95;;
19213;SDS011;9741;51.020;5.304;2023-06-22T02:58:22;3.47;;;2.20;;
19213;SDS011;9741;51.020;5.304;2023-06-22T03:00:49;2.90;;;1.88;;
19213;SDS011;9741;51.020;5.304;2023-06-22T03:03:18;2.75;;;2.13;;
19213;SDS011;9741;51.020;5.304;2023-06-22T03:05:45;2.47;;;1.92;;
19213;SDS011;9741;51.020;5.304;2023-06-22T03:08:14;2.80;;;1.80;;
19213;SDS011;9741;51.020;5.304;2023-06-22T03:10:41;3.22;;;2.22;;
19213;SDS011;9741;51.020;5.304;2023-06-22T03:13:08;3.25;;;2.63;;
19213;SDS011;9741;51.020;5.304;2023-06-22T03:15:35;6.95;;;2.80;;
19213;SDS011;9741;51.020;5.304;2023-06-22T03:18:02;7.60;;;3.28;;
19213;SDS011;9741;51.020;5.304;2023-06-22T03:20:30;5.43;;;2.88;;
19213;SDS011;9741;51.020;5.304;2023-06-22T03:22:58;2.83;;;2.22;;
19213;SDS011;9741;51.020;5.304;2023-06-22T03:25:27;2.88;;;2.30;;
19213;SDS011;9741;51.020;5.304;2023-06-22T03:27:54;2.63;;;2.30;;
19213;SDS011;9741;51.020;5.304;2023-06-22T03:30:21;8.27;;;3.35;;
19213;SDS011;9741;51.020;5.304;2023-06-22T03:32:48;4.30;;;2.78;;
19213;SDS011;9741;51.020;5.304;2023-06-22T03:35:16;3.28;;;2.88;;
19213;SDS011;9741;51.020;5.304;2023-06-22T03:37:43;5.55;;;2.28;;
19213;SDS011;9741;51.020;5.304;2023-06-22T03:40:12;3.75;;;2.22;;
19213;SDS011;9741;51.020;5.304;2023-06-22T03:42:40;4.50;;;2.78;;
19213;SDS011;9741;51.020;5.304;2023-06-22T03:45:08;4.55;;;2.38;;
19213;SDS011;9741;51.020;5.304;2023-06-22T03:47:36;4.13;;;2.38;;
19213;SDS011;9741;51.020;5.304;2023-06-22T03:50:05;4.78;;;2.88;;
19213;SDS011;9741;51.020;5.304;2023-06-22T03:52:33;4.05;;;2.78;;
19213;SDS011;9741;51.020;5.304;2023-06-22T03:55:00;4.07;;;2.58;;
19213;SDS011;9741;51.020;5.304;2023-06-22T03:57:27;6.18;;;2.15;;
19213;SDS011;9741;51.020;5.304;2023-06-22T03:59:55;4.85;;;2.95;;
19213;SDS011;9741;51.020;5.304;2023-06-22T04:02:23;4.15;;;2.72;;
19213;SDS011;9741;51.020;5.304;2023-06-22T04:04:50;7.43;;;3.30;;
19213;SDS011;9741;51.020;5.304;2023-06-22T04:07:18;5.45;;;2.58;;
19213;SDS011;9741;51.020;5.304;2023-06-22T04:09:45;3.92;;;2.83;;
19213;SDS011;9741;51.020;5.304;2023-06-22T04:12:12;4.22;;;2.72;;
19213;SDS011;9741;51.020;5.304;2023-06-22T04:14:39;10.93;;;2.58;;
19213;SDS011;9741;51.020;5.304;2023-06-22T04:17:07;10.30;;;3.42;;
19213;SDS011;9741;51.020;5.304;2023-06-22T04:19:34;3.50;;;2.00;;
19213;SDS011;9741;51.020;5.304;2023-06-22T04:22:02;7.38;;;3.30;;
19213;SDS011;9741;51.020;5.304;2023-06-22T04:24:31;13.20;;;2.55;;
19213;SDS011;9741;51.020;5.304;2023-06-22T04:26:58;4.93;;;2.72;;
19213;SDS011;9741;51.020;5.304;2023-06-22T04:29:27;3.97;;;2.60;;
19213;SDS011;9741;51.020;5.304;2023-06-22T04:31:55;3.97;;;2.47;;
19213;SDS011;9741;51.020;5.304;2023-06-22T04:34:25;11.40;;;2.65;;
19213;SDS011;9741;51.020;5.304;2023-06-22T04:36:53;2.67;;;1.88;;
19213;SDS011;9741;51.020;5.304;2023-06-22T04:39:20;6.05;;;3.40;;
19213;SDS011;9741;51.020;5.304;2023-06-22T04:41:47;5.20;;;3.08;;
19213;SDS011;9741;51.020;5.304;2023-06-22T04:44:15;9.00;;;3.83;;
19213;SDS011;9741;51.020;5.304;2023-06-22T04:46:49;3.90;;;2.85;;
19213;SDS011;9741;51.020;5.304;2023-06-22T04:49:19;5.00;;;2.95;;
19213;SDS011;9741;51.020;5.304;2023-06-22T04:51:48;5.82;;;2.97;;
19213;SDS011;9741;51.020;5.304;2023-06-22T04:54:17;5.15;;;2.95;;
19213;SDS011;9741;51.020;5.304;2023-06-22T04:56:44;6.28;;;2.80;;
19213;SDS011;9741;51.020;5.304;2023-06-22T04:59:11;4.50;;;2.67;;
19213;SDS011;9741;51.020;5.304;2023-06-22T05:01:39;5.10;;;2.90;;
19213;SDS011;9741;51.020;5.304;2023-06-22T05:04:08;7.97;;;3.58;;
19213;SDS011;9741;51.020;5.304;2023-06-22T05:06:35;3.45;;;2.78;;
19213;SDS011;9741;51.020;5.304;2023-06-22T05:09:06;9.13;;;2.80;;
19213;SDS011;9741;51.020;5.304;2023-06-22T05:11:33;3.97;;;2.95;;
19213;SDS011;9741;51.020;5.304;2023-06-22T05:14:00;6.40;;;2.85;;
19213;SDS011;9741;51.020;5.304;2023-06-22T05:16:27;3.35;;;3.00;;
19213;SDS011;9741;51.020;5.304;2023-06-22T05:18:54;4.88;;;3.45;;
19213;SDS011;9741;51.020;5.304;2023-06-22T05:21:22;6.82;;;2.80;;
19213;SDS011;9741;51.020;5.304;2023-06-22T05:23:50;5.43;;;3.55;;
19213;SDS011;9741;51.020;5.304;2023-06-22T05:26:19;4.13;;;2.85;;
19213;SDS011;9741;51.020;5.304;2023-06-22T05:28:47;6.90;;;3.90;;
19213;SDS011;9741;51.020;5.304;2023-06-22T05:31:14;7.40;;;3.42;;
19213;SDS011;9741;51.020;5.304;2023-06-22T05:33:42;3.95;;;2.67;;
19213;SDS011;9741;51.020;5.304;2023-06-22T05:36:10;4.47;;;2.78;;
19213;SDS011;9741;51.020;5.304;2023-06-22T05:38:37;7.85;;;3.50;;
19213;SDS011;9741;51.020;5.304;2023-06-22T05:41:05;5.45;;;3.80;;
19213;SDS011;9741;51.020;5.304;2023-06-22T05:43:34;7.15;;;4.03;;
19213;SDS011;9741;51.020;5.304;2023-06-22T05:46:01;5.78;;;3.67;;
19213;SDS011;9741;51.020;5.304;2023-06-22T05:48:30;6.30;;;2.75;;
19213;SDS011;9741;51.020;5.304;2023-06-22T05:50:57;6.75;;;2.53;;
19213;SDS011;9741;51.020;5.304;2023-06-22T05:53:24;8.05;;;3.70;;
19213;SDS011;9741;51.020;5.304;2023-06-22T05:55:51;6.88;;;3.95;;
19213;SDS011;9741;51.020;5.304;2023-06-22T05:58:18;3.15;;;2.55;;
19213;SDS011;9741;51.020;5.304;2023-06-22T06:00:47;4.53;;;2.75;;
19213;SDS011;9741;51.020;5.304;2023-06-22T06:03:14;5.20;;;3.95;;
19213;SDS011;9741;51.020;5.304;2023-06-22T06:05:42;6.28;;;3.92;;
19213;SDS011;9741;51.020;5.304;2023-06-22T06:08:09;3.83;;;2.85;;
19213;SDS011;9741;51.020;5.304;2023-06-22T06:10:37;13.27;;;4.00;;
19213;SDS011;9741;51.020;5.304;2023-06-22T06:13:04;4.63;;;3.65;;
19213;SDS011;9741;51.020;5.304;2023-06-22T06:15:31;4.75;;;3.25;;
19213;SDS011;9741;51.020;5.304;2023-06-22T06:18:00;7.53;;;3.67;;
19213;SDS011;9741;51.020;5.304;2023-06-22T06:20:29;6.32;;;4.00;;
19213;SDS011;9741;51.020;5.304;2023-06-22T06:22:56;4.07;;;2.83;;
19213;SDS011;9741;51.020;5.304;2023-06-22T06:25:23;6.47;;;3.25;;
19213;SDS011;9741;51.020;5.304;2023-06-22T06:27:51;4.28;;;3.30;;
19213;SDS011;9741;51.020;5.304;2023-06-22T06:30:19;10.20;;;3.17;;
19213;SDS011;9741;51.020;5.304;2023-06-22T06:32:47;7.03;;;4.00;;
19213;SDS011;9741;51.020;5.304;2023-06-22T06:35:17;6.72;;;3.88;;
19213;SDS011;9741;51.020;5.304;2023-06-22T06:37:44;4.43;;;3.63;;
19213;SDS011;9741;51.020;5.304;2023-06-22T06:40:14;5.85;;;3.53;;
19213;SDS011;9741;51.020;5.304;2023-06-22T06:42:43;6.80;;;3.72;;
19213;SDS011;9741;51.020;5.304;2023-06-22T06:45:11;6.80;;;3.80;;
19213;SDS011;9741;51.020;5.304;2023-06-22T06:47:39;3.90;;;2.65;;
19213;SDS011;9741;51.020;5.304;2023-06-22T06:50:06;4.60;;;3.67;;
19213;SDS011;9741;51.020;5.304;2023-06-22T06:52:36;5.95;;;2.92;;
19213;SDS011;9741;51.020;5.304;2023-06-22T06:55:04;7.32;;;3.28;;
19213;SDS011;9741;51.020;5.304;2023-06-22T06:57:33;5.70;;;3.55;;
19213;SDS011;9741;51.020;5.304;2023-06-22T07:00:02;4.47;;;2.97;;
19213;SDS011;9741;51.020;5.304;2023-06-22T07:02:35;8.27;;;3.58;;
19213;SDS011;9741;51.020;5.304;2023-06-22T07:05:02;5.45;;;3.85;;
19213;SDS011;9741;51.020;5.304;2023-06-22T07:07:29;5.60;;;3.72;;
19213;SDS011;9741;51.020;5.304;2023-06-22T07:09:58;5.20;;;3.95;;
19213;SDS011;9741;51.020;5.304;2023-06-22T07:12:25;7.07;;;3.90;;
19213;SDS011;9741;51.020;5.304;2023-06-22T07:14:53;6.18;;;3.35;;
19213;SDS011;9741;51.020;5.304;2023-06-22T07:17:21;6.15;;;3.28;;
19213;SDS011;9741;51.020;5.304;2023-06-22T07:19:53;7.05;;;3.35;;
19213;SDS011;9741;51.020;5.304;2023-06-22T07:22:20;5.82;;;4.18;;
19213;SDS011;9741;51.020;5.304;2023-06-22T07:24:47;5.05;;;3.55;;
19213;SDS011;9741;51.020;5.304;2023-06-22T07:27:17;5.90;;;3.72;;
19213;SDS011;9741;51.020;5.304;2023-06-22T07:29:45;6.30;;;3.13;;
19213;SDS011;9741;51.020;5.304;2023-06-22T07:32:13;3.95;;;3.28;;
19213;SDS011;9741;51.020;5.304;2023-06-22T07:34:40;7.20;;;4.03;;
19213;SDS011;9741;51.020;5.304;2023-06-22T07:37:08;7.43;;;3.78;;
19213;SDS011;9741;51.020;5.304;2023-06-22T07:39:35;6.85;;;3.35;;
19213;SDS011;9741;51.020;5.304;2023-06-22T07:42:04;5.40;;;3.28;;
19213;SDS011;9741;51.020;5.304;2023-06-22T07:44:33;3.67;;;2.85;;
19213;SDS011;9741;51.020;5.304;2023-06-22T07:47:00;4.68;;;3.17;;
19213;SDS011;9741;51.020;5.304;2023-06-22T07:49:28;7.85;;;4.03;;
19213;SDS011;9741;51.020;5.304;2023-06-22T07:51:58;4.53;;;3.17;;
19213;SDS011;9741;51.020;5.304;2023-06-22T07:54:27;9.18;;;3.45;;
19213;SDS011;9741;51.020;5.304;2023-06-22T07:56:55;5.70;;;3.15;;
19213;SDS011;9741;51.020;5.304;2023-06-22T07:59:23;2.92;;;2.63;;
19213;SDS011;9741;51.020;5.304;2023-06-22T08:01:52;5.65;;;3.40;;
19213;SDS011;9741;51.020;5.304;2023-06-22T08:04:19;5.70;;;3.30;;
19213;SDS011;9741;51.020;5.304;2023-06-22T08:06:47;3.45;;;2.97;;
19213;SDS011;9741;51.020;5.304;2023-06-22T08:09:14;5.03;;;3.90;;
19213;SDS011;9741;51.020;5.304;2023-06-22T08:11:43;4.45;;;3.47;;
19213;SDS011;9741;51.020;5.304;2023-06-22T08:14:12;4.47;;;3.17;;
19213;SDS011;9741;51.020;5.304;2023-06-22T08:16:41;5.60;;;3.45;;
19213;SDS011;9741;51.020;5.304;2023-06-22T08:19:11;4.15;;;2.78;;
19213;SDS011;9741;51.020;5.304;2023-06-22T08:21:42;2.53;;;2.28;;
19213;SDS011;9741;51.020;5.304;2023-06-22T08:24:09;3.42;;;3.03;;
19213;SDS011;9741;51.020;5.304;2023-06-22T08:26:38;4.28;;;2.38;;
19213;SDS011;9741;51.020;5.304;2023-06-22T08:29:08;7.82;;;3.75;;
19213;SDS011;9741;51.020;5.304;2023-06-22T08:31:40;8.55;;;3.13;;
19213;SDS011;9741;51.020;5.304;2023-06-22T08:34:13;4.60;;;3.15;;
19213;SDS011;9741;51.020;5.304;2023-06-22T08:36:48;5.55;;;3.35;;
19213;SDS011;9741;51.020;5.304;2023-06-22T08:39:19;4.80;;;3.90;;
19213;SDS011;9741;51.020;5.304;2023-06-22T08:41:48;2.97;;;1.80;;
19213;SDS011;9741;51.020;5.304;2023-06-22T08:44:19;4.60;;;3.22;;
19213;SDS011;9741;51.020;5.304;2023-06-22T08:46:47;4.10;;;2.92;;
19213;SDS011;9741;51.020;5.304;2023-06-22T08:49:16;4.72;;;2.53;;
19213;SDS011;9741;51.020;5.304;2023-06-22T08:51:43;5.07;;;3.05;;
19213;SDS011;9741;51.020;5.304;2023-06-22T08:54:12;5.60;;;3.33;;
19213;SDS011;9741;51.020;5.304;2023-06-22T08:56:40;4.43;;;2.85;;
19213;SDS011;9741;51.020;5.304;2023-06-22T08:59:09;2.90;;;2.58;;
19213;SDS011;9741;51.020;5.304;2023-06-22T09:01:38;4.25;;;3.50;;
19213;SDS011;9741;51.020;5.304;2023-06-22T09:04:14;5.63;;;3.45;;
19213;SDS011;9741;51.020;5.304;2023-06-22T09:06:45;4.55;;;2.88;;
19213;SDS011;9741;51.020;5.304;2023-06-22T09:09:12;7.50;;;3.20;;
19213;SDS011;9741;51.020;5.304;2023-06-22T09:11:44;4.03;;;3.40;;
19213;SDS011;9741;51.020;5.304;2023-06-22T09:14:13;5.65;;;3.33;;
19213;SDS011;9741;51.020;5.304;2023-06-22T09:16:40;4.10;;;3.70;;
19213;SDS011;9741;51.020;5.304;2023-06-22T09:19:10;4.28;;;3.25;;
19213;SDS011;9741;51.020;5.304;2023-06-22T09:21:45;5.80;;;3.53;;
19213;SDS011;9741;51.020;5.304;2023-06-22T09:24:14;4.43;;;3.13;;
19213;SDS011;9741;51.020;5.304;2023-06-22T09:26:42;6.35;;;4.00;;
19213;SDS011;9741;51.020;5.304;2023-06-22T09:29:10;5.57;;;3.42;;
19213;SDS011;9741;51.020;5.304;2023-06-22T09:31:39;4.20;;;2.95;;
19213;SDS011;9741;51.020;5.304;2023-06-22T09:34:09;8.65;;;4.47;;
19213;SDS011;9741;51.020;5.304;2023-06-22T09:36:37;7.63;;;5.30;;
19213;SDS011;9741;51.020;5.304;2023-06-22T09:39:09;8.75;;;4.25;;
19213;SDS011;9741;51.020;5.304;2023-06-22T09:41:37;6.47;;;3.80;;
19213;SDS011;9741;51.020;5.304;2023-06-22T09:44:07;4.88;;;4.05;;
19213;SDS011;9741;51.020;5.304;2023-06-22T09:46:43;3.72;;;2.88;;
19213;SDS011;9741;51.020;5.304;2023-06-22T09:49:14;4.45;;;3.78;;
19213;SDS011;9741;51.020;5.304;2023-06-22T09:51:41;3.92;;;3.55;;
19213;SDS011;9741;51.020;5.304;2023-06-22T09:54:11;5.85;;;2.78;;
19213;SDS011;9741;51.020;5.304;2023-06-22T09:56:38;5.00;;;3.67;;
19213;SDS011;9741;51.020;5.304;2023-06-22T09:59:05;7.47;;;4.10;;
19213;SDS011;9741;51.020;5.304;2023-06-22T10:01:33;7.72;;;4.68;;
19213;SDS011;9741;51.020;5.304;2023-06-22T10:04:00;6.85;;;3.63;;
19213;SDS011;9741;51.020;5.304;2023-06-22T10:06:30;3.95;;;3.15;;
19213;SDS011;9741;51.020;5.304;2023-06-22T10:08:57;4.18;;;3.25;;
19213;SDS011;9741;51.020;5.304;2023-06-22T10:11:26;8.40;;;4.00;;
19213;SDS011;9741;51.020;5.304;2023-06-22T10:13:55;9.75;;;4.03;;
19213;SDS011;9741;51.020;5.304;2023-06-22T10:16:23;5.22;;;3.90;;
19213;SDS011;9741;51.020;5.304;2023-06-22T10:18:56;3.28;;;2.85;;
19213;SDS011;9741;51.020;5.304;2023-06-22T10:21:23;4.40;;;3.22;;
19213;SDS011;9741;51.020;5.304;2023-06-22T10:23:52;7.38;;;4.28;;
19213;SDS011;9741;51.020;5.304;2023-06-22T10:26:19;6.57;;;4.72;;
19213;SDS011;9741;51.020;5.304;2023-06-22T10:28:47;7.60;;;4.45;;
19213;SDS011;9741;51.020;5.304;2023-06-22T10:31:16;4.18;;;3.55;;
19213;SDS011;9741;51.020;5.304;2023-06-22T10:33:43;7.13;;;4.22;;
19213;SDS011;9741;51.020;5.304;2023-06-22T10:36:10;3.38;;;3.08;;
19213;SDS011;9741;51.020;5.304;2023-06-22T10:38:38;8.35;;;4.10;;
19213;SDS011;9741;51.020;5.304;2023-06-22T10:41:05;7.18;;;4.25;;
19213;SDS011;9741;51.020;5.304;2023-06-22T10:43:32;4.80;;;3.90;;
19213;SDS011;9741;51.020;5.304;2023-06-22T10:46:00;6.07;;;4.50;;
19213;SDS011;9741;51.020;5.304;2023-06-22T10:48:27;8.85;;;4.03;;
19213;SDS011;9741;51.020;5.304;2023-06-22T10:50:54;11.93;;;6.30;;
19213;SDS011;9741;51.020;5.304;2023-06-22T10:53:21;9.32;;;5.40;;
19213;SDS011;9741;51.020;5.304;2023-06-22T10:55:48;11.70;;;5.70;;
19213;SDS011;9741;51.020;5.304;2023-06-22T10:58:18;8.45;;;5.68;;
19213;SDS011;9741;51.020;5.304;2023-06-22T11:00:45;5.13;;;4.35;;
19213;SDS011;9741;51.020;5.304;2023-06-22T11:03:14;8.07;;;5.47;;
19213;SDS011;9741;51.020;5.304;2023-06-22T11:05:42;10.18;;;6.07;;
19213;SDS011;9741;51.020;5.304;2023-06-22T11:08:09;13.52;;;7.18;;
19213;SDS011;9741;51.020;5.304;2023-06-22T11:10:36;7.75;;;5.97;;
19213;SDS011;9741;51.020;5.304;2023-06-22T11:13:03;7.35;;;5.75;;
19213;SDS011;9741;51.020;5.304;2023-06-22T11:15:34;9.05;;;6.55;;
19213;SDS011;9741;51.020;5.304;2023-06-22T11:18:02;10.60;;;6.10;;
19213;SDS011;9741;51.020;5.304;2023-06-22T11:20:31;9.20;;;4.28;;
19213;SDS011;9741;51.020;5.304;2023-06-22T11:23:03;10.27;;;5.63;;
19213;SDS011;9741;51.020;5.304;2023-06-22T11:25:34;7.85;;;5.50;;
19213;SDS011;9741;51.020;5.304;2023-06-22T11:28:03;9.45;;;4.72;;
19213;SDS011;9741;51.020;5.304;2023-06-22T11:30:30;6.65;;;5.35;;
19213;SDS011;9741;51.020;5.304;2023-06-22T11:32:58;7.55;;;5.63;;
19213;SDS011;9741;51.020;5.304;2023-06-22T11:35:26;7.28;;;5.00;;
19213;SDS011;9741;51.020;5.304;2023-06-22T11:37:54;7.88;;;5.50;;
19213;SDS011;9741;51.020;5.304;2023-06-22T11:40:23;10.50;;;5.03;;
19213;SDS011;9741;51.020;5.304;2023-06-22T11:42:50;11.48;;;6.53;;
19213;SDS011;9741;51.020;5.304;2023-06-22T11:45:17;10.38;;;6.57;;
19213;SDS011;9741;51.020;5.304;2023-06-22T11:47:45;8.10;;;5.25;;
19213;SDS011;9741;51.020;5.304;2023-06-22T11:50:12;9.85;;;6.13;;
19213;SDS011;9741;51.020;5.304;2023-06-22T11:52:39;9.68;;;5.43;;
19213;SDS011;9741;51.020;5.304;2023-06-22T11:55:09;12.30;;;7.07;;
19213;SDS011;9741;51.020;5.304;2023-06-22T11:57:37;5.53;;;4.40;;
19213;SDS011;9741;51.020;5.304;2023-06-22T12:00:05;7.90;;;6.20;;
19213;SDS011;9741;51.020;5.304;2023-06-22T12:02:41;11.00;;;6.25;;
19213;SDS011;9741;51.020;5.304;2023-06-22T12:05:10;9.07;;;5.78;;
19213;SDS011;9741;51.020;5.304;2023-06-22T12:07:38;9.73;;;6.10;;
19213;SDS011;9741;51.020;5.304;2023-06-22T12:10:06;7.80;;;6.25;;
19213;SDS011;9741;51.020;5.304;2023-06-22T12:12:35;12.13;;;6.85;;
19213;SDS011;9741;51.020;5.304;2023-06-22T12:15:02;7.35;;;5.88;;
19213;SDS011;9741;51.020;5.304;2023-06-22T12:17:30;7.40;;;5.75;;
19213;SDS011;9741;51.020;5.304;2023-06-22T12:19:58;9.25;;;6.28;;
19213;SDS011;9741;51.020;5.304;2023-06-22T12:22:25;10.52;;;5.53;;
19213;SDS011;9741;51.020;5.304;2023-06-22T12:24:55;9.25;;;4.82;;
19213;SDS011;9741;51.020;5.304;2023-06-22T12:27:22;10.80;;;6.50;;
19213;SDS011;9741;51.020;5.304;2023-06-22T12:29:51;7.88;;;5.65;;
19213;SDS011;9741;51.020;5.304;2023-06-22T12:32:18;10.68;;;5.57;;
19213;SDS011;9741;51.020;5.304;2023-06-22T12:34:45;8.25;;;5.53;;
19213;SDS011;9741;51.020;5.304;2023-06-22T12:37:12;15.85;;;6.38;;
19213;SDS011;9741;51.020;5.304;2023-06-22T12:39:40;10.52;;;6.30;;
19213;SDS011;9741;51.020;5.304;2023-06-22T12:42:07;11.43;;;5.82;;
19213;SDS011;9741;51.020;5.304;2023-06-22T12:44:37;11.23;;;5.57;;
19213;SDS011;9741;51.020;5.304;2023-06-22T12:47:06;8.70;;;5.35;;
19213;SDS011;9741;51.020;5.304;2023-06-22T12:49:33;13.52;;;6.15;;
19213;SDS011;9741;51.020;5.304;2023-06-22T12:52:01;12.38;;;6.88;;
19213;SDS011;9741;51.020;5.304;2023-06-22T12:54:28;8.32;;;5.47;;
19213;SDS011;9741;51.020;5.304;2023-06-22T12:56:55;6.82;;;5.18;;
19213;SDS011;9741;51.020;5.304;2023-06-22T12:59:25;10.90;;;5.03;;
19213;SDS011;9741;51.020;5.304;2023-06-22T13:01:52;6.43;;;4.82;;
19213;SDS011;9741;51.020;5.304;2023-06-22T13:04:21;7.18;;;5.45;;
19213;SDS011;9741;51.020;5.304;2023-06-22T13:06:48;14.63;;;6.25;;
19213;SDS011;9741;51.020;5.304;2023-06-22T13:09:16;9.00;;;5.68;;
19213;SDS011;9741;51.020;5.304;2023-06-22T13:11:44;8.93;;;5.18;;
19213;SDS011;9741;51.020;5.304;2023-06-22T13:14:11;7.43;;;5.35;;
19213;SDS011;9741;51.020;5.304;2023-06-22T13:16:42;7.25;;;5.50;;
19213;SDS011;9741;51.020;5.304;2023-06-22T13:19:12;8.15;;;5.60;;
19213;SDS011;9741;51.020;5.304;2023-06-22T13:21:47;7.65;;;5.47;;
19213;SDS011;9741;51.020;5.304;2023-06-22T13:24:23;8.15;;;4.85;;
19213;SDS011;9741;51.020;5.304;2023-06-22T13:26:51;5.95;;;4.55;;
19213;SDS011;9741;51.020;5.304;2023-06-22T13:29:19;8.48;;;4.78;;
19213;SDS011;9741;51.020;5.304;2023-06-22T13:31:47;9.75;;;5.70;;
19213;SDS011;9741;51.020;5.304;2023-06-22T13:34:16;7.10;;;4.82;;
19213;SDS011;9741;51.020;5.304;2023-06-22T13:36:46;9.68;;;6.25;;
19213;SDS011;9741;51.020;5.304;2023-06-22T13:39:15;6.32;;;4.68;;
19213;SDS011;9741;51.020;5.304;2023-06-22T13:41:43;5.60;;;4.28;;
19213;SDS011;9741;51.020;5.304;2023-06-22T13:44:13;8.20;;;5.32;;
19213;SDS011;9741;51.020;5.304;2023-06-22T13:46:40;5.57;;;4.97;;
19213;SDS011;9741;51.020;5.304;2023-06-22T13:49:08;4.85;;;3.95;;
19213;SDS011;9741;51.020;5.304;2023-06-22T13:51:36;10.73;;;5.05;;
19213;SDS011;9741;51.020;5.304;2023-06-22T13:54:05;7.13;;;5.22;;
19213;SDS011;9741;51.020;5.304;2023-06-22T13:56:33;9.85;;;6.10;;
19213;SDS011;9741;51.020;5.304;2023-06-22T13:59:01;7.20;;;5.15;;
19213;SDS011;9741;51.020;5.304;2023-06-22T14:01:28;9.27;;;4.95;;
19213;SDS011;9741;51.020;5.304;2023-06-22T14:03:56;6.05;;;4.70;;
19213;SDS011;9741;51.020;5.304;2023-06-22T14:06:27;8.00;;;4.93;;
19213;SDS011;9741;51.020;5.304;2023-06-22T14:08:55;8.77;;;5.30;;
19213;SDS011;9741;51.020;5.304;2023-06-22T14:11:25;9.52;;;5.80;;
19213;SDS011;9741;51.020;5.304;2023-06-22T14:13:57;5.97;;;4.18;;
19213;SDS011;9741;51.020;5.304;2023-06-22T14:16:25;7.22;;;5.40;;
19213;SDS011;9741;51.020;5.304;2023-06-22T14:18:53;8.43;;;5.63;;
19213;SDS011;9741;51.020;5.304;2023-06-22T14:21:20;13.07;;;5.68;;
19213;SDS011;9741;51.020;5.304;2023-06-22T14:23:48;8.00;;;4.72;;
19213;SDS011;9741;51.020;5.304;2023-06-22T14:26:15;7.72;;;5.40;;
19213;SDS011;9741;51.020;5.304;2023-06-22T14:28:46;6.70;;;5.35;;
19213;SDS011;9741;51.020;5.304;2023-06-22T14:31:15;7.07;;;5.35;;
19213;SDS011;9741;51.020;5.304;2023-06-22T14:33:44;7.50;;;5.50;;
19213;SDS011;9741;51.020;5.304;2023-06-22T14:36:13;11.95;;;5.03;;
19213;SDS011;9741;51.020;5.304;2023-06-22T14:38:40;5.93;;;4.50;;
19213;SDS011;9741;51.020;5.304;2023-06-22T14:41:12;7.70;;;5.45;;
19213;SDS011;9741;51.020;5.304;2023-06-22T14:43:46;6.43;;;4.60;;
19213;SDS011;9741;51.020;5.304;2023-06-22T14:46:14;8.15;;;5.03;;
19213;SDS011;9741;51.020;5.304;2023-06-22T14:48:42;7.38;;;4.80;;
19213;SDS011;9741;51.020;5.304;2023-06-22T14:51:10;9.95;;;4.40;;
19213;SDS011;9741;51.020;5.304;2023-06-22T14:53:41;3.25;;;2.90;;
19213;SDS011;9741;51.020;5.304;2023-06-22T14:56:10;5.75;;;3.85;;
19213;SDS011;9741;51.020;5.304;2023-06-22T14:58:47;5.57;;;4.75;;
19213;SDS011;9741;51.020;5.304;2023-06-22T15:01:24;7.35;;;3.30;;
19213;SDS011;9741;51.020;5.304;2023-06-22T15:03:52;7.38;;;4.38;;
19213;SDS011;9741;51.020;5.304;2023-06-22T15:06:21;5.95;;;3.92;;
19213;SDS011;9741;51.020;5.304;2023-06-22T15:08:53;6.22;;;3.28;;